Time;durP1;ratioP1;P1;durP2;ratioP2;P2;SDS_P1;SDS_P2;PMS_P1;PMS_P2;Temp;Humidity;BMP_temperature;BMP_pressure;BME280_temperature;BME280_humidity;BME280_pressure;Samples;Min_cycle;Max_cycle;Signal;HPM_P1;HPM_P2
2022/04/11 00:00:46;;;;;;;16.20;11.10;;;;;;;4.93;68.98;101873.56;5106181;28;20038;-53
2022/04/11 00:03:11;;;;;;;18.13;11.88;;;;;;;4.84;68.76;101862.66;5106524;28;20505;-55
2022/04/11 00:05:36;;;;;;;20.10;11.98;;;;;;;4.74;69.61;101864.19;5105595;28;20124;-55
2022/04/11 00:08:02;;;;;;;21.75;12.57;;;;;;;4.68;69.48;101856.69;5109458;28;20047;-55
2022/04/11 00:10:27;;;;;;;20.65;12.68;;;;;;;4.68;68.93;101857.56;5101527;28;20048;-56
2022/04/11 00:13:09;;;;;;;20.88;13.23;;;;;;;4.67;69.65;101847.13;5100232;28;20043;-55
2022/04/11 00:15:34;;;;;;;21.35;13.15;;;;;;;4.64;68.85;101856.06;5101956;28;20398;-55
2022/04/11 00:18:03;;;;;;;20.98;12.70;;;;;;;4.66;68.81;101855.97;5101922;28;20031;-54
2022/04/11 00:20:29;;;;;;;18.85;13.00;;;;;;;4.65;70.04;101855.13;5105017;28;20377;-55
2022/04/11 00:22:54;;;;;;;15.98;12.23;;;;;;;4.71;70.26;101852.13;5112219;28;20048;-55
2022/04/11 00:25:20;;;;;;;16.20;12.13;;;;;;;4.76;70.21;101853.59;5103377;28;20039;-55
2022/04/11 00:27:45;;;;;;;17.42;12.35;;;;;;;4.78;70.53;101854.34;5100200;28;20031;-55
2022/04/11 00:30:11;;;;;;;18.00;12.52;;;;;;;4.76;70.34;101845.72;5101874;28;20458;-55
2022/04/11 00:32:40;;;;;;;19.52;13.05;;;;;;;4.71;70.53;101844.22;5106443;28;20039;-54
2022/04/11 00:35:08;;;;;;;19.08;12.32;;;;;;;4.66;70.32;101845.44;5110976;28;20095;-55
2022/04/11 00:37:33;;;;;;;18.73;12.27;;;;;;;4.60;71.21;101841.44;5099482;28;20024;-54
2022/04/11 00:39:58;;;;;;;22.63;13.48;;;;;;;4.57;70.46;101836.38;5098395;28;20020;-57
2022/04/11 00:42:27;;;;;;;20.95;14.05;;;;;;;4.50;70.92;101835.94;5097055;28;20111;-56
2022/04/11 00:44:53;;;;;;;19.88;12.82;;;;;;;4.51;69.95;101832.38;5094748;28;20416;-54
2022/04/11 00:47:18;;;;;;;23.85;13.20;;;;;;;4.56;69.09;101829.44;5097297;28;20026;-51
2022/04/11 00:49:44;;;;;;;21.27;13.55;;;;;;;4.44;69.49;101816.13;5098932;28;20050;-55
2022/04/11 00:52:11;;;;;;;19.80;12.80;;;;;;;4.56;70.69;101824.19;5100336;28;20035;-55
2022/04/11 00:54:38;;;;;;;20.70;13.40;;;;;;;4.53;70.66;101822.59;5107823;28;20658;-53
2022/04/11 00:57:04;;;;;;;22.58;13.48;;;;;;;4.55;70.76;101817.25;5105139;28;20500;-53
2022/04/11 00:59:29;;;;;;;21.40;13.05;;;;;;;4.50;71.03;101814.06;5100904;28;20055;-54
2022/04/11 01:01:55;;;;;;;20.45;13.05;;;;;;;4.56;71.82;101813.66;5105152;28;20052;-55
2022/04/11 01:04:23;;;;;;;21.48;13.27;;;;;;;4.52;71.27;101812.16;5101730;28;20032;-54
2022/04/11 01:06:53;;;;;;;21.15;12.45;;;;;;;4.52;72.13;101814.81;5100972;28;20024;-55
2022/04/11 01:09:18;;;;;;;18.45;12.93;;;;;;;4.52;71.80;101812.16;5101775;28;20036;-52
2022/04/11 01:11:43;;;;;;;20.25;13.40;;;;;;;4.49;72.35;101812.38;5104030;28;20028;-56
2022/04/11 01:14:09;;;;;;;21.50;13.30;;;;;;;4.48;72.46;101803.66;5103165;28;20046;-56
2022/04/11 01:16:34;;;;;;;20.75;13.30;;;;;;;4.48;72.12;101802.81;5103276;28;20420;-57
2022/04/11 01:18:59;;;;;;;18.35;12.80;;;;;;;4.48;72.30;101805.44;5106406;28;20027;-56
2022/04/11 01:21:30;;;;;;;20.38;13.23;;;;;;;4.51;73.10;101807.88;5111085;28;20401;-56
2022/04/11 01:23:56;;;;;;;22.65;14.00;;;;;;;4.47;72.32;101804.59;5105778;28;20470;-54
2022/04/11 01:26:22;;;;;;;24.15;13.98;;;;;;;4.51;72.79;101806.09;5102122;28;20035;-55
2022/04/11 01:28:48;;;;;;;20.38;13.68;;;;;;;4.54;72.32;101805.06;5101061;28;20039;-56
2022/04/11 01:31:15;;;;;;;21.27;13.75;;;;;;;4.53;72.12;101809.47;5097111;28;20490;-55
2022/04/11 01:33:40;;;;;;;24.48;14.07;;;;;;;4.47;72.57;101809.00;5098695;28;20028;-54
2022/04/11 01:36:05;;;;;;;22.10;14.18;;;;;;;4.52;72.08;101810.41;5103810;28;20480;-54
2022/04/11 01:38:30;;;;;;;22.38;14.00;;;;;;;4.46;72.76;101805.53;5104441;28;20066;-56
2022/04/11 01:40:57;;;;;;;21.35;13.93;;;;;;;4.47;72.05;101809.00;5106504;28;20035;-55
2022/04/11 01:43:23;;;;;;;21.90;13.98;;;;;;;4.42;71.95;101812.78;5098238;28;20059;-55
2022/04/11 01:45:49;;;;;;;22.20;14.40;;;;;;;4.39;72.77;101812.94;5102860;28;20473;-53
2022/04/11 01:48:15;;;;;;;22.50;14.57;;;;;;;4.50;72.47;101808.81;5104562;28;20036;-53
2022/04/11 01:50:40;;;;;;;22.73;13.93;;;;;;;4.48;72.30;101813.34;5108314;28;20043;-54
2022/04/11 01:53:10;;;;;;;21.15;14.48;;;;;;;4.46;72.85;101807.31;5110512;28;20513;-54
2022/04/11 01:55:36;;;;;;;21.98;14.07;;;;;;;4.46;73.53;101812.56;5101387;28;20024;-54
2022/04/11 01:58:03;;;;;;;24.67;14.70;;;;;;;4.40;73.60;101804.13;5103567;28;20083;-56
2022/04/11 02:00:29;;;;;;;20.90;14.38;;;;;;;4.40;73.57;101793.63;5095502;28;20505;-56
2022/04/11 02:02:54;;;;;;;23.20;15.13;;;;;;;4.34;73.47;101799.25;5100331;28;20072;-55
2022/04/11 02:05:20;;;;;;;20.90;14.52;;;;;;;4.23;73.71;101793.84;5104098;28;20080;-56
2022/04/11 02:07:45;;;;;;;22.17;14.48;;;;;;;4.15;74.38;101789.09;5107217;28;20036;-56
2022/04/11 02:10:10;;;;;;;22.88;14.55;;;;;;;4.10;73.89;101797.22;5098018;28;20048;-55
2022/04/11 02:12:36;;;;;;;22.08;14.95;;;;;;;4.04;74.26;101800.25;5108184;28;20036;-55
2022/04/11 02:15:01;;;;;;;21.08;14.82;;;;;;;3.99;74.58;101789.22;5109091;28;20143;-56
2022/04/11 02:17:26;;;;;;;21.52;14.75;;;;;;;3.95;74.62;101798.19;5113867;28;20039;-56
2022/04/11 02:19:52;;;;;;;22.55;14.52;;;;;;;3.98;74.14;101798.00;5112048;28;20016;-57
2022/04/11 02:22:18;;;;;;;23.88;14.85;;;;;;;4.00;74.11;101791.72;5105067;28;20039;-56
2022/04/11 02:24:43;;;;;;;23.73;15.30;;;;;;;3.96;74.93;101795.50;5104692;28;20036;-56
2022/04/11 02:27:09;;;;;;;21.25;14.93;;;;;;;3.98;74.08;101792.75;5101602;28;20027;-57
2022/04/11 02:29:34;;;;;;;22.60;15.43;;;;;;;3.96;74.29;101799.88;5106039;28;20039;-56
2022/04/11 02:31:59;;;;;;;20.65;15.23;;;;;;;3.94;73.50;101807.00;5112727;28;20462;-55
2022/04/11 02:34:25;;;;;;;23.08;14.63;;;;;;;3.94;74.00;101802.59;5112507;28;20104;-56
2022/04/11 02:36:51;;;;;;;22.13;14.95;;;;;;;3.96;74.11;101800.72;5112234;28;20031;-55
2022/04/11 02:39:16;;;;;;;20.48;15.40;;;;;;;3.96;73.46;101799.88;5104802;28;20027;-56
2022/04/11 02:41:42;;;;;;;20.17;14.32;;;;;;;3.96;73.80;101799.88;5107841;28;20592;-55
2022/04/11 02:44:07;;;;;;;19.90;14.02;;;;;;;3.92;73.33;101798.38;5103999;28;20470;-55
2022/04/11 02:46:32;;;;;;;20.98;15.13;;;;;;;3.84;73.80;101798.88;5110309;28;20027;-55
2022/04/11 02:48:58;;;;;;;21.23;15.00;;;;;;;3.80;74.38;101806.06;5109657;28;20081;-55
2022/04/11 02:51:23;;;;;;;19.98;14.23;;;;;;;3.72;73.98;101795.19;5113186;28;20482;-55
2022/04/11 02:53:48;;;;;;;21.40;14.43;;;;;;;3.66;74.17;101793.78;5103563;28;20036;-55
2022/04/11 02:56:14;;;;;;;21.00;14.88;;;;;;;3.66;74.27;101795.56;5110438;28;20042;-56
2022/04/11 02:58:39;;;;;;;20.45;14.25;;;;;;;3.69;74.43;101793.59;5110231;28;20054;-53
2022/04/11 03:01:04;;;;;;;20.55;15.23;;;;;;;3.64;74.02;101790.41;5106962;28;20030;-56
2022/04/11 03:03:30;;;;;;;22.10;15.20;;;;;;;3.60;74.33;101789.75;5106967;28;20028;-57
2022/04/11 03:05:55;;;;;;;20.50;14.70;;;;;;;3.66;74.02;101785.91;5108532;28;20043;-55
2022/04/11 03:08:20;;;;;;;20.50;14.73;;;;;;;3.61;73.63;101785.34;5107756;28;20498;-53
2022/04/11 03:10:46;;;;;;;20.52;14.85;;;;;;;3.57;74.16;101784.69;5103677;28;20047;-53
2022/04/11 03:13:11;;;;;;;20.08;15.05;;;;;;;3.53;73.50;101788.44;5101573;28;20145;-55
2022/04/11 03:15:36;;;;;;;21.93;14.93;;;;;;;3.46;73.46;101782.69;5107353;28;20024;-55
2022/04/11 03:18:01;;;;;;;21.10;15.00;;;;;;;3.41;73.67;101789.16;5110190;28;20454;-53
2022/04/11 03:20:27;;;;;;;20.93;15.13;;;;;;;3.35;73.73;101783.34;5110948;28;20107;-55
2022/04/11 03:22:52;;;;;;;19.70;14.97;;;;;;;3.30;74.21;101774.91;5102828;28;20036;-54
2022/04/11 03:25:17;;;;;;;19.97;15.13;;;;;;;3.29;74.39;101775.84;5106424;28;20043;-55
2022/04/11 03:27:43;;;;;;;20.90;15.20;;;;;;;3.31;74.97;101784.44;5111023;28;20031;-53
2022/04/11 03:30:09;;;;;;;22.00;15.10;;;;;;;3.29;74.38;101781.09;5101659;28;20074;-54
2022/04/11 03:32:35;;;;;;;20.67;14.50;;;;;;;3.26;74.17;101786.50;5106312;28;20080;-56
2022/04/11 03:35:01;;;;;;;20.37;15.60;;;;;;;3.25;74.74;101778.75;5109803;28;20045;-56
2022/04/11 03:37:26;;;;;;;19.03;15.00;;;;;;;3.17;74.95;101773.94;5106863;28;20036;-55
2022/04/11 03:39:51;;;;;;;19.17;14.97;;;;;;;3.21;74.60;101780.69;5104383;28;20031;-54
2022/04/11 03:42:17;;;;;;;19.93;14.77;;;;;;;3.15;74.91;101788.91;5108953;28;20514;-54
2022/04/11 03:44:42;;;;;;;19.53;14.70;;;;;;;3.14;74.65;101776.72;5104985;28;20039;-55
2022/04/11 03:47:08;;;;;;;23.57;14.83;;;;;;;3.08;74.10;101784.03;5106679;28;20044;-55
2022/04/11 03:49:34;;;;;;;19.97;14.80;;;;;;;3.10;73.98;101786.53;5112568;28;20432;-56
2022/04/11 03:51:59;;;;;;;20.17;14.43;;;;;;;3.08;73.88;101783.19;5112468;28;20035;-55
2022/04/11 03:54:24;;;;;;;18.73;14.27;;;;;;;3.15;74.04;101783.69;5109118;28;20031;-56
2022/04/11 03:56:50;;;;;;;21.90;14.53;;;;;;;3.16;74.10;101790.59;5101434;28;20039;-53
2022/04/11 03:59:15;;;;;;;21.00;15.40;;;;;;;3.15;74.08;101784.50;5105385;28;20529;-55
2022/04/11 04:01:40;;;;;;;20.73;14.97;;;;;;;3.09;73.65;101785.72;5104211;28;20031;-54
2022/04/11 04:04:06;;;;;;;21.93;15.20;;;;;;;3.11;73.83;101784.78;5111624;28;20088;-55
2022/04/11 04:06:31;;;;;;;19.37;14.83;;;;;;;3.13;73.85;101790.75;5099310;28;20035;-56
2022/04/11 04:08:57;;;;;;;19.50;15.27;;;;;;;3.09;73.73;101775.25;5103437;28;20463;-56
2022/04/11 04:11:22;;;;;;;19.97;14.50;;;;;;;3.16;74.23;101777.50;5106737;28;20047;-54
2022/04/11 04:13:48;;;;;;;19.23;14.63;;;;;;;3.02;74.32;101779.16;5107899;28;20028;-55
2022/04/11 04:16:13;;;;;;;24.47;15.60;;;;;;;3.00;74.34;101781.00;5104155;28;20088;-55
2022/04/11 04:18:38;;;;;;;21.57;15.23;;;;;;;2.90;74.70;101772.81;5106600;28;20077;-55
2022/04/11 04:21:04;;;;;;;23.83;15.60;;;;;;;2.87;74.62;101774.78;5112661;28;20035;-55
2022/04/11 04:23:30;;;;;;;19.40;15.43;;;;;;;2.77;75.53;101775.28;5110047;28;20023;-55
2022/04/11 04:25:56;;;;;;;21.20;15.27;;;;;;;2.77;75.15;101772.66;5104193;28;20039;-53
2022/04/11 04:28:21;;;;;;;21.27;15.10;;;;;;;2.74;74.83;101767.63;5105264;28;20123;-54
2022/04/11 04:30:47;;;;;;;19.63;14.70;;;;;;;2.77;74.90;101769.22;5101789;28;20485;-53
2022/04/11 04:33:14;;;;;;;21.80;15.27;;;;;;;2.78;74.61;101769.16;5110935;28;20032;-55
2022/04/11 04:35:40;;;;;;;20.87;14.67;;;;;;;2.76;75.16;101768.38;5104891;28;20084;-55
2022/04/11 04:38:05;;;;;;;24.40;15.60;;;;;;;2.80;75.27;101769.03;5105912;28;20617;-55
2022/04/11 04:40:31;;;;;;;21.10;15.10;;;;;;;2.83;75.06;101764.47;5105255;28;20568;-54
2022/04/11 04:42:56;;;;;;;20.97;14.87;;;;;;;2.85;74.59;101766.19;5107806;28;20024;-50
2022/04/11 04:45:23;;;;;;;21.90;15.33;;;;;;;2.83;75.08;101764.47;5108356;28;20046;-54
2022/04/11 04:47:48;;;;;;;19.90;15.40;;;;;;;2.73;74.78;101763.31;5111178;28;20026;-54
2022/04/11 04:50:13;;;;;;;21.00;15.97;;;;;;;2.75;75.09;101765.81;5100713;28;20462;-54
2022/04/11 04:52:39;;;;;;;21.33;15.20;;;;;;;2.71;75.25;101759.09;5110568;28;20043;-55
2022/04/11 04:55:05;;;;;;;22.77;15.07;;;;;;;2.70;75.55;101763.47;5104352;28;20050;-56
2022/04/11 04:57:30;;;;;;;23.57;14.83;;;;;;;2.64;75.47;101762.06;5101228;28;20015;-53
2022/04/11 04:59:55;;;;;;;21.63;15.17;;;;;;;2.61;75.89;101759.59;5102859;28;20030;-55
2022/04/11 05:02:20;;;;;;;22.23;15.73;;;;;;;2.58;76.01;101764.16;5102583;28;20527;-56
2022/04/11 05:04:46;;;;;;;20.60;15.23;;;;;;;2.63;75.67;101756.91;5096381;28;20125;-57
2022/04/11 05:07:11;;;;;;;19.37;14.50;;;;;;;2.69;75.59;101754.78;5106044;28;20107;-59
2022/04/11 05:09:36;;;;;;;22.80;15.07;;;;;;;2.69;75.54;101761.78;5104665;28;20065;-56
2022/04/11 05:12:02;;;;;;;20.87;15.03;;;;;;;2.70;75.86;101747.75;5106775;28;20036;-54
2022/04/11 05:14:27;;;;;;;21.43;15.20;;;;;;;2.64;75.97;101748.13;5108521;28;20038;-56
2022/04/11 05:16:52;;;;;;;23.77;15.53;;;;;;;2.66;76.19;101751.50;5100972;28;20026;-54
2022/04/11 05:19:18;;;;;;;23.20;15.30;;;;;;;2.65;76.43;101745.41;5106755;28;20092;-52
2022/04/11 05:21:43;;;;;;;21.23;14.73;;;;;;;2.69;76.11;101746.09;5105455;28;20063;-54
2022/04/11 05:24:08;;;;;;;22.07;15.13;;;;;;;2.71;75.92;101749.44;5109265;28;20454;-54
2022/04/11 05:26:33;;;;;;;19.33;14.30;;;;;;;2.64;76.06;101742.88;5105139;28;20062;-52
2022/04/11 05:28:59;;;;;;;21.33;14.70;;;;;;;2.71;76.36;101746.00;5104255;28;20110;-55
2022/04/11 05:31:24;;;;;;;21.67;15.20;;;;;;;2.75;76.24;101744.88;5100140;28;20080;-53
2022/04/11 05:33:50;;;;;;;22.33;14.30;;;;;;;2.79;76.66;101742.00;5101661;28;20048;-54
2022/04/11 05:36:15;;;;;;;20.83;15.13;;;;;;;2.73;76.01;101734.50;5099966;28;20085;-53
2022/04/11 05:38:41;;;;;;;25.17;15.03;;;;;;;2.86;76.30;101749.53;5100497;28;20035;-52
2022/04/11 05:41:07;;;;;;;21.27;14.70;;;;;;;2.90;76.24;101753.63;5102548;28;20045;-55
2022/04/11 05:43:33;;;;;;;20.73;14.83;;;;;;;3.00;76.08;101753.97;5099116;28;20535;-51
2022/04/11 05:46:01;;;;;;;21.47;14.03;;;;;;;3.07;74.94;101755.28;5105525;28;21662;-53
2022/04/11 05:48:27;;;;;;;20.77;14.17;;;;;;;3.13;75.69;101747.06;5099885;28;20024;-54
2022/04/11 05:50:52;;;;;;;21.03;13.30;;;;;;;3.21;75.11;101757.09;5103225;28;20047;-53
2022/04/11 05:53:18;;;;;;;24.97;14.43;;;;;;;3.27;75.00;101756.75;5101618;28;20046;-54
2022/04/11 05:55:43;;;;;;;22.00;13.80;;;;;;;3.39;74.69;101754.31;5100747;28;20518;-52
2022/04/11 05:58:08;;;;;;;20.63;13.17;;;;;;;3.47;74.09;101752.91;5101634;28;20370;-54
2022/04/11 06:00:34;;;;;;;21.10;13.20;;;;;;;3.55;74.01;101744.59;5099187;28;20032;-54
2022/04/11 06:02:59;;;;;;;18.47;13.00;;;;;;;3.65;73.23;101749.28;5103890;28;20409;-56
2022/04/11 06:05:25;;;;;;;20.17;12.97;;;;;;;3.72;73.16;101742.72;5099915;28;20080;-55
2022/04/11 06:07:50;;;;;;;18.67;12.70;;;;;;;3.81;72.73;101744.78;5099389;28;20653;-55
2022/04/11 06:10:15;;;;;;;19.63;13.25;;;;;;;3.90;72.87;101738.94;5103418;28;20090;-54
2022/04/11 06:12:41;;;;;;;20.23;12.83;;;;;;;4.01;72.49;101740.06;5103187;28;20473;-55
2022/04/11 06:15:06;;;;;;;19.93;12.40;;;;;;;4.10;72.54;101744.72;5105120;28;20090;-55
2022/04/11 06:17:34;;;;;;;17.67;12.18;;;;;;;4.17;71.56;101751.31;5103597;28;20042;-54
2022/04/11 06:20:01;;;;;;;20.25;12.32;;;;;;;4.25;71.64;101748.16;5100697;28;20028;-55
2022/04/11 06:22:27;;;;;;;19.00;12.43;;;;;;;4.32;71.25;101748.63;5098987;28;20024;-55
2022/04/11 06:25:01;;;;;;;16.70;11.82;;;;;;;4.43;71.66;101751.41;5094892;28;20099;-54
2022/04/11 06:27:27;;;;;;;17.48;12.52;;;;;;;4.49;70.49;101754.59;5103300;28;20028;-55
2022/04/11 06:29:56;;;;;;;15.85;11.23;;;;;;;4.58;70.26;101749.59;5098071;28;20115;-54
2022/04/11 06:32:26;;;;;;;18.42;11.80;;;;;;;4.64;70.78;101743.06;5107288;28;20048;-57
2022/04/11 06:34:51;;;;;;;17.23;11.75;;;;;;;4.76;70.17;101740.59;5104401;28;20067;-55
2022/04/11 06:37:16;;;;;;;18.92;11.30;;;;;;;4.82;70.54;101741.03;5098111;28;20059;-56
2022/04/11 06:39:42;;;;;;;16.52;11.45;;;;;;;4.88;69.28;101742.41;5098539;28;20031;-56
2022/04/11 06:42:08;;;;;;;17.58;11.10;;;;;;;4.95;69.13;101746.31;5102369;28;20422;-54
2022/04/11 06:44:34;;;;;;;16.33;10.57;;;;;;;5.04;69.62;101751.91;5106004;28;20016;-56
2022/04/11 06:46:59;;;;;;;18.75;11.10;;;;;;;5.11;68.60;101750.56;5105392;28;20093;-56
2022/04/11 06:49:24;;;;;;;20.45;11.02;;;;;;;5.17;68.28;101754.56;5096994;28;20031;-55
2022/04/11 06:51:49;;;;;;;16.58;10.90;;;;;;;5.25;67.54;101753.09;5103609;28;20951;-59
2022/04/11 06:54:15;;;;;;;14.38;10.13;;;;;;;5.31;67.21;101756.25;5106017;28;20059;-59
2022/04/11 06:56:40;;;;;;;17.58;10.35;;;;;;;5.39;67.82;101754.78;5104412;28;20040;-59
2022/04/11 06:59:05;;;;;;;18.13;9.98;;;;;;;5.46;67.15;101755.22;5092273;28;20100;-58
2022/04/11 07:01:30;;;;;;;14.90;9.45;;;;;;;5.56;66.32;101765.09;5105679;28;20594;-58
2022/04/11 07:03:57;;;;;;;15.07;9.60;;;;;;;5.64;67.06;101757.53;5111464;28;20103;-59
2022/04/11 07:06:22;;;;;;;15.70;9.98;;;;;;;5.75;66.53;101762.03;5109751;28;20034;-58
2022/04/11 07:08:47;;;;;;;15.57;9.63;;;;;;;5.81;66.20;101758.97;5102320;28;20032;-58
2022/04/11 07:11:13;;;;;;;19.10;9.60;;;;;;;5.93;66.37;101762.56;5109874;28;20058;-59
2022/04/11 07:13:38;;;;;;;15.77;10.02;;;;;;;6.01;67.09;101765.47;5109924;28;20038;-60
2022/04/11 07:16:04;;;;;;;16.73;9.60;;;;;;;6.12;65.10;101745.47;5108012;28;20084;-59
2022/04/11 07:18:31;;;;;;;13.68;9.30;;;;;;;6.21;65.45;101746.63;5103666;28;20043;-58
2022/04/11 07:20:57;;;;;;;15.55;8.85;;;;;;;6.29;65.35;101737.22;5109865;28;20084;-58
2022/04/11 07:23:23;;;;;;;13.10;8.98;;;;;;;6.39;64.08;101736.53;5107369;27;20035;-59
2022/04/11 07:25:48;;;;;;;15.00;9.10;;;;;;;6.49;65.50;101736.69;5112891;28;20106;-58
2022/04/11 07:28:14;;;;;;;13.40;8.65;;;;;;;6.57;63.64;101737.81;5111074;28;20031;-59
2022/04/11 07:30:39;;;;;;;14.82;8.93;;;;;;;6.66;63.50;101732.84;5101732;28;20050;-59
2022/04/11 07:33:05;;;;;;;14.48;8.02;;;;;;;6.75;62.57;101731.31;5108074;27;20112;-58
2022/04/11 07:35:30;;;;;;;13.55;8.20;;;;;;;6.83;62.09;101732.41;5112361;28;20035;-58
2022/04/11 07:37:57;;;;;;;11.77;7.90;;;;;;;6.94;62.10;101736.03;5106800;28;20398;-59
2022/04/11 07:40:26;;;;;;;14.02;8.00;;;;;;;7.03;62.71;101732.72;5110552;28;20028;-59
2022/04/11 07:42:52;;;;;;;13.63;8.15;;;;;;;7.13;60.89;101725.78;5111644;27;20071;-59
2022/04/11 07:45:18;;;;;;;15.77;7.82;;;;;;;7.22;60.82;101720.75;5108721;28;20050;-59
2022/04/11 07:47:44;;;;;;;17.05;7.95;;;;;;;7.28;61.14;101725.56;5110396;28;20780;-59
2022/04/11 08:18:03;;;;;;;13.32;6.85;;;;;;;8.18;57.22;101694.78;5046000;28;20424;-59
2022/04/11 08:20:28;;;;;;;12.93;6.60;;;;;;;8.26;57.12;101680.94;5027518;28;20030;-59
2022/04/11 08:22:54;;;;;;;11.65;6.35;;;;;;;8.33;56.82;101681.25;5026028;28;20520;-59
2022/04/11 08:25:20;;;;;;;13.95;6.57;;;;;;;8.37;57.21;101687.13;5025838;28;20034;-59
2022/04/11 08:27:45;;;;;;;9.73;6.40;;;;;;;8.50;56.18;101686.97;5024621;28;20038;-59
2022/04/11 08:30:13;;;;;;;10.40;6.55;;;;;;;8.58;57.27;101687.19;5023573;28;20034;-59
2022/04/11 08:32:45;;;;;;;11.70;6.00;;;;;;;8.58;56.01;101668.69;5024120;28;20029;-59
2022/04/11 08:35:11;;;;;;;10.40;6.28;;;;;;;8.73;55.85;101678.00;5029036;28;20018;-59
2022/04/11 08:37:42;;;;;;;11.85;6.20;;;;;;;8.84;55.09;101673.63;5025961;28;20035;-59
2022/04/11 08:40:12;;;;;;;11.23;6.63;;;;;;;8.92;53.83;101676.44;5042871;28;20038;-59
2022/04/11 08:42:39;;;;;;;9.18;5.80;;;;;;;8.96;53.98;101683.16;5022708;28;20030;-59
2022/04/11 08:45:05;;;;;;;13.43;5.55;;;;;;;9.01;54.41;101678.31;5028028;28;20030;-60
2022/04/11 08:47:30;;;;;;;10.73;6.00;;;;;;;9.15;53.77;101671.88;5022473;28;20546;-59
2022/04/11 08:49:55;;;;;;;10.90;5.40;;;;;;;9.38;52.10;101676.13;5025435;28;20121;-59
2022/04/11 08:52:21;;;;;;;19.08;5.45;;;;;;;9.45;52.21;101677.28;5025822;28;20029;-59
2022/04/11 08:54:46;;;;;;;11.13;5.35;;;;;;;9.55;51.54;101672.84;5026330;28;20033;-59
2022/04/11 08:57:12;;;;;;;10.73;5.00;;;;;;;9.62;51.79;101677.63;5027231;28;20034;-59
2022/04/11 08:59:37;;;;;;;7.78;4.80;;;;;;;9.71;52.68;101663.56;5024384;28;20029;-59
2022/04/11 09:02:10;;;;;;;10.75;4.75;;;;;;;9.76;52.66;101673.72;5026293;28;20372;-59
2022/04/11 09:04:54;;;;;;;12.00;4.50;;;;;;;9.79;52.68;101673.47;5015864;28;20103;-58
2022/04/11 09:07:20;;;;;;;9.43;4.15;;;;;;;9.85;51.14;101680.03;5031320;28;20034;-54
2022/04/11 09:09:45;;;;;;;8.55;4.45;;;;;;;9.89;49.83;101684.09;5028225;28;20079;-54
2022/04/11 09:12:13;;;;;;;9.60;4.00;;;;;;;9.91;50.20;101676.84;5026120;28;20065;-54
2022/04/11 09:14:40;;;;;;;7.85;4.30;;;;;;;9.99;49.43;101674.34;5030388;28;20033;-55
2022/04/11 09:17:05;;;;;;;7.90;3.97;;;;;;;10.09;48.57;101669.91;5021715;28;20061;-54
2022/04/11 09:19:31;;;;;;;8.02;4.03;;;;;;;10.12;50.08;101662.66;5027289;28;20034;-55
2022/04/11 09:21:57;;;;;;;7.40;4.60;;;;;;;10.16;48.52;101656.13;5026798;28;20085;-55
2022/04/11 09:24:25;;;;;;;10.95;4.47;;;;;;;10.24;49.87;101645.63;5026846;28;20468;-54
2022/04/11 09:26:54;;;;;;;6.90;4.07;;;;;;;10.33;48.40;101652.78;5026207;28;20026;-56
2022/04/11 09:29:20;;;;;;;8.57;3.85;;;;;;;10.47;47.89;101645.41;5009288;28;20492;-55
2022/04/11 09:31:45;;;;;;;8.52;4.05;;;;;;;10.55;47.14;101634.91;5000765;28;20035;-54
2022/04/11 09:34:22;;;;;;;9.48;4.22;;;;;;;10.59;48.81;101633.66;5008570;28;20026;-53
2022/04/11 09:36:52;;;;;;;7.45;4.07;;;;;;;10.67;47.06;101634.75;4999843;28;20018;-56
2022/04/11 09:39:30;;;;;;;7.90;3.70;;;;;;;10.72;45.09;101629.84;5013676;28;20061;-56
2022/04/11 09:41:55;;;;;;;6.68;3.90;;;;;;;10.79;45.40;101633.59;5013372;28;20105;-56
2022/04/11 09:44:23;;;;;;;8.93;3.85;;;;;;;10.86;44.78;101640.00;5012139;28;20061;-56
2022/04/11 09:46:50;;;;;;;6.85;3.80;;;;;;;10.86;45.37;101633.88;5009880;28;20034;-51
2022/04/11 09:49:16;;;;;;;6.68;4.10;;;;;;;10.93;47.15;101632.31;5011804;28;20026;-56
2022/04/11 09:52:00;;;;;;;8.68;4.15;;;;;;;11.01;48.07;101626.28;5011695;28;20033;-55
2022/04/11 09:54:27;;;;;;;8.90;4.05;;;;;;;11.11;46.00;101616.47;5012982;28;20080;-57
2022/04/11 09:56:53;;;;;;;6.60;3.80;;;;;;;11.22;43.88;101611.94;5012196;28;20061;-56
2022/04/11 09:59:22;;;;;;;11.65;4.20;;;;;;;11.23;45.84;101613.63;5009667;28;20593;-56
2022/04/11 10:01:50;;;;;;;7.57;4.13;;;;;;;11.20;45.50;101609.44;5012284;28;20566;-56
2022/04/11 10:04:17;;;;;;;7.63;4.43;;;;;;;11.24;44.19;101604.66;5009116;28;20484;-56
2022/04/11 10:06:43;;;;;;;8.15;4.20;;;;;;;11.30;43.96;101604.94;5007890;28;20026;-56
2022/04/11 10:09:09;;;;;;;10.80;4.30;;;;;;;11.38;44.71;101596.22;5007166;28;20030;-56
2022/04/11 10:11:34;;;;;;;7.60;4.43;;;;;;;11.47;44.33;101599.81;5012713;28;20038;-56
2022/04/11 10:14:01;;;;;;;6.78;4.20;;;;;;;11.53;43.30;101598.38;5009778;28;20464;-56
2022/04/11 10:16:26;;;;;;;8.02;3.90;;;;;;;11.62;43.11;101602.81;5008321;28;20050;-55
2022/04/11 10:18:59;;;;;;;6.68;4.18;;;;;;;11.70;44.08;101605.53;5008571;28;20120;-56
2022/04/11 10:21:24;;;;;;;8.45;4.60;;;;;;;11.75;43.31;101602.41;5013091;28;20029;-56
2022/04/11 10:24:05;;;;;;;8.68;4.60;;;;;;;11.83;42.69;101599.00;5009450;28;20492;-56
2022/04/11 10:26:42;;;;;;;8.27;4.22;;;;;;;11.82;43.04;101598.19;5005064;28;20535;-56
2022/04/11 10:29:34;;;;;;;7.05;4.40;;;;;;;11.88;43.21;101591.44;5019456;28;20084;-56
2022/04/11 10:32:19;;;;;;;9.52;4.65;;;;;;;12.00;44.05;101584.06;5013955;28;20058;-56
2022/04/11 10:35:18;;;;;;;7.85;4.68;;;;;;;12.10;42.61;101594.66;5006058;28;20152;-56
2022/04/11 10:37:43;;;;;;;8.20;3.88;;;;;;;12.19;40.80;101592.91;5011399;28;20117;-56
2022/04/11 10:40:17;;;;;;;6.93;4.20;;;;;;;12.18;41.07;101592.06;5012012;28;20105;-56
2022/04/11 10:43:11;;;;;;;6.82;4.15;;;;;;;12.24;42.36;101595.94;5013177;28;20095;-56
2022/04/11 10:45:54;;;;;;;8.23;4.35;;;;;;;12.30;41.45;101589.16;5012641;28;20049;-56
2022/04/11 10:48:24;;;;;;;5.97;4.05;;;;;;;12.38;41.11;101582.06;5015048;28;20029;-56
2022/04/11 10:50:52;;;;;;;8.43;4.30;;;;;;;12.42;39.82;101566.63;5011365;28;20029;-56
2022/04/11 10:53:24;;;;;;;8.90;4.30;;;;;;;12.55;40.00;101562.72;5011336;28;20079;-56
2022/04/11 10:56:04;;;;;;;8.85;4.50;;;;;;;12.60;39.75;101568.41;5002473;28;20465;-54
2022/04/11 10:59:05;;;;;;;8.63;4.30;;;;;;;12.68;41.51;101568.44;5009350;28;20096;-55
2022/04/11 11:01:46;;;;;;;7.97;4.55;;;;;;;12.72;41.05;101556.50;5006391;28;20096;-55
2022/04/11 11:04:22;;;;;;;9.57;4.45;;;;;;;12.80;40.99;101554.88;5006320;28;20057;-55
2022/04/11 11:07:08;;;;;;;5.88;4.15;;;;;;;12.84;39.88;101542.94;5008630;28;20566;-57
2022/04/11 11:09:40;;;;;;;7.70;4.82;;;;;;;12.88;40.52;101533.63;5012934;28;20041;-56
2022/04/11 11:12:24;;;;;;;6.90;4.10;;;;;;;12.93;41.57;101531.31;5012350;28;20034;-55
2022/04/11 11:14:49;;;;;;;8.15;4.65;;;;;;;13.05;40.18;101530.06;5012211;28;20026;-56
2022/04/11 11:17:15;;;;;;;11.38;4.70;;;;;;;13.14;40.13;101522.09;5009100;28;20046;-56
2022/04/11 11:20:02;;;;;;;7.82;4.78;;;;;;;13.20;41.63;101526.75;5010601;28;20022;-56
2022/04/11 11:22:31;;;;;;;6.90;4.45;;;;;;;13.24;39.70;101521.94;5011278;28;20372;-57
2022/04/11 11:25:17;;;;;;;9.00;4.72;;;;;;;13.27;41.08;101503.81;5009126;28;20022;-56
2022/04/11 11:27:44;;;;;;;10.23;5.00;;;;;;;13.36;39.00;101509.97;5011628;28;20661;-60
2022/04/11 11:30:11;;;;;;;9.07;4.35;;;;;;;13.34;39.40;101497.81;5010354;28;20498;-59
2022/04/11 11:32:39;;;;;;;7.90;4.65;;;;;;;13.31;38.63;101491.84;5003221;28;20036;-59
2022/04/11 11:35:06;;;;;;;6.18;4.30;;;;;;;13.31;38.70;101486.50;5012324;28;20034;-58
2022/04/11 11:37:31;;;;;;;8.13;4.38;;;;;;;13.41;39.31;101477.50;5024353;28;20030;-58
2022/04/11 11:39:59;;;;;;;9.25;4.35;;;;;;;13.43;38.45;101480.88;5020291;28;20552;-59
2022/04/11 11:42:24;;;;;;;7.13;4.25;;;;;;;13.46;37.00;101480.56;5022773;28;20018;-59
2022/04/11 11:44:50;;;;;;;5.57;3.90;;;;;;;13.52;38.71;101479.06;5012392;28;20495;-59
2022/04/11 11:47:16;;;;;;;6.60;4.32;;;;;;;13.59;37.67;101478.22;5010299;28;20065;-58